^^
Station Historical Data
Daily Summary for October 15, 2017 Units:  English    Metric   Both
« Previous Day
Next Day »
Daily Weekly Monthly Yearly Custom
  High: Low: Average:
Temperature: 72.2 °F 61.1 °F 66.5 °F
Dew Point: 64.9 °F 59.4 °F 62.6 °F
Humidity: 95% 76% 88%
Wind Speed: 8.0mph 0.0mph 2.9mph
Wind Gust: 18.0mph - -
Wind- - SSW
Pressure: 30.17 in 29.81 in -
Precipitation: 0.00 in    
Historical Graphs
 
 
Tabular Data for October 15, 2017
Time Temperature Dew Point Pressure Wind Wind Speed Wind Gust Humidity Rainfall Rate (Hourly) Conditions
00:00 64.6 °F 61.6 °F 30.17 in Calm     90% 0.00 in RA
00:15 64.8 °F 61.8 °F 30.17 in Calm     90% 0.00 in BKN
00:30 64.7 °F 61.4 °F 30.16 in Calm     89% 0.00 in BKN
00:45 64.4 °F 61.4 °F 30.16 in Calm     90% 0.00 in BKN
01:00 64.1 °F 61.1 °F 30.15 in Calm     90% 0.00 in BKN
01:15 64.1 °F 61.4 °F 30.15 in Calm     91% 0.00 in BKN
01:30 63.9 °F 61.2 °F 30.15 in Calm     91% 0.00 in BKN
01:45 63.7 °F 61.0 °F 30.14 in Calm     91% 0.00 in BKN
02:00 63.5 °F 60.8 °F 30.14 in Calm     91% 0.00 in BKN
02:15 63.6 °F 60.9 °F 30.14 in Calm     91% 0.00 in BKN
02:30 63.7 °F 61.3 °F 30.14 in Calm     92% 0.00 in BKN
02:45 63.7 °F 61.3 °F 30.14 in Calm     92% 0.00 in BKN
03:00 63.5 °F 61.1 °F 30.13 in Calm     92% 0.00 in BKN
03:15 63.3 °F 60.9 °F 30.12 in Calm     92% 0.00 in -DZ
03:30 62.8 °F 60.4 °F 30.11 in Calm     92% 0.00 in -DZ
03:45 62.5 °F 60.1 °F 30.11 in Calm     92% 0.00 in -DZ
04:00 61.5 °F 59.5 °F 30.11 in Calm     93% 0.00 in -DZ
04:15 61.1 °F 59.4 °F 30.11 in Calm     94% 0.00 in OVC
04:30 61.6 °F 60.2 °F 30.11 in Calm   1.0 mph 95% 0.00 in OVC
04:45 62.2 °F 60.8 °F 30.10 in Calm   3.0 mph 95% 0.00 in OVC
05:00 62.4 °F 60.9 °F 30.10 in Calm   2.0 mph 95% 0.00 in OVC
05:15 62.7 °F 61.2 °F 30.10 in South 1.0 mph 2.0 mph 95% 0.00 in OVC
05:30 63.0 °F 61.5 °F 30.10 in Calm   1.0 mph 95% 0.00 in OVC
05:45 63.2 °F 61.5 °F 30.09 in SSW 1.0 mph 2.0 mph 94% 0.00 in OVC
06:00 63.5 °F 61.7 °F 30.09 in Calm   2.0 mph 94% 0.00 in OVC
06:15 63.9 °F 61.8 °F 30.08 in SSW 2.0 mph 6.0 mph 93% 0.00 in OVC
06:30 64.2 °F 61.8 °F 30.08 in SSW 1.0 mph 6.0 mph 92% 0.00 in OVC
06:45 64.2 °F 61.8 °F 30.08 in SSW 1.0 mph 6.0 mph 92% 0.00 in OVC
07:00 64.3 °F 61.6 °F 30.08 in Calm   7.0 mph 91% 0.00 in OVC
07:15 64.3 °F 61.6 °F 30.08 in SSW 2.0 mph 7.0 mph 91% 0.00 in OVC
07:30 64.3 °F 61.6 °F 30.08 in SSW 2.0 mph 6.0 mph 91% 0.00 in OVC
07:45 64.4 °F 61.7 °F 30.08 in SSW 1.0 mph 6.0 mph 91% 0.00 in OVC
08:00 64.4 °F 62.1 °F 30.08 in SW 2.0 mph 7.0 mph 92% 0.00 in OVC
08:15 64.6 °F 62.2 °F 30.08 in SW 1.0 mph 5.0 mph 92% 0.00 in -DZ
08:30 64.8 °F 62.4 °F 30.08 in South 1.0 mph 5.0 mph 92% 0.00 in -DZ
08:45 64.9 °F 62.8 °F 30.08 in SW 1.0 mph 8.0 mph 93% 0.00 in -DZ
09:00 65.0 °F 63.2 °F 30.07 in SSW 1.0 mph 8.0 mph 94% 0.00 in -DZ
09:15 65.4 °F 63.6 °F 30.07 in South 3.0 mph 8.0 mph 94% 0.00 in OVC
09:30 65.9 °F 64.1 °F 30.07 in SW 3.0 mph 7.0 mph 94% 0.00 in OVC
09:45 66.2 °F 64.1 °F 30.06 in SSW 2.0 mph 8.0 mph 93% 0.00 in OVC
10:00 66.9 °F 64.5 °F 30.05 in SSW 3.0 mph 9.0 mph 92% 0.00 in OVC
10:15 67.6 °F 64.6 °F 30.05 in SSW 2.0 mph 12.0 mph 90% 0.00 in OVC
10:30 68.0 °F 64.6 °F 30.04 in SSW 5.0 mph 15.0 mph 89% 0.00 in OVC
10:45 68.5 °F 64.8 °F 30.03 in SW 3.0 mph 16.0 mph 88% 0.00 in OVC
11:00 68.3 °F 64.6 °F 30.03 in SSE 6.0 mph 16.0 mph 88% 0.00 in OVC
11:15 68.4 °F 64.4 °F 30.03 in SSW 6.0 mph 12.0 mph 87% 0.00 in OVC
11:30 68.4 °F 64.7 °F 30.02 in SW 5.0 mph 12.0 mph 88% 0.00 in OVC
11:45 69.0 °F 64.6 °F 30.01 in South 8.0 mph 15.0 mph 86% 0.00 in OVC
12:00 70.0 °F 64.9 °F 30.00 in SW 6.0 mph 12.0 mph 84% 0.00 in OVC
12:15 69.9 °F 64.1 °F 30.00 in SSW 7.0 mph 12.0 mph 82% 0.00 in BKN
12:30 70.1 °F 64.3 °F 29.99 in SSW 7.0 mph 13.0 mph 82% 0.00 in BKN
12:45 70.6 °F 64.5 °F 29.98 in SW 5.0 mph 10.0 mph 81% 0.00 in BKN
13:00 70.6 °F 64.5 °F 29.97 in SW 5.0 mph 12.0 mph 81% 0.00 in BKN
13:15 71.1 °F 64.6 °F 29.95 in SSW 2.0 mph 12.0 mph 80% 0.00 in BKN
13:30 71.7 °F 64.5 °F 29.94 in SW 8.0 mph 15.0 mph 78% 0.00 in BKN
13:45 72.2 °F 64.2 °F 29.94 in South 5.0 mph 16.0 mph 76% 0.00 in BKN
14:00 72.2 °F 64.2 °F 29.93 in SW 6.0 mph 13.0 mph 76% 0.00 in BKN
14:15 71.8 °F 63.8 °F 29.92 in SSW 6.0 mph 14.0 mph 76% 0.00 in BKN
14:30 71.6 °F 64.0 °F 29.92 in SSW 3.0 mph 13.0 mph 77% 0.00 in BKN
14:45 71.8 °F 64.2 °F 29.91 in SSW 8.0 mph 13.0 mph 77% 0.00 in BKN
15:00 71.4 °F 64.2 °F 29.91 in SSW 6.0 mph 15.0 mph 78% 0.00 in BKN
15:15 71.1 °F 64.3 °F 29.90 in SW 6.0 mph 16.0 mph 79% 0.00 in BKN
15:30 71.1 °F 63.9 °F 29.89 in SSW 6.0 mph 13.0 mph 78% 0.00 in BKN
15:45 71.0 °F 63.8 °F 29.89 in SSW 7.0 mph 14.0 mph 78% 0.00 in BKN
16:00 71.1 °F 63.9 °F 29.88 in SSW 7.0 mph 12.0 mph 78% 0.00 in BKN
16:15 71.1 °F 63.9 °F 29.88 in South 8.0 mph 13.0 mph 78% 0.00 in BKN
16:30 70.7 °F 63.9 °F 29.87 in SSW 8.0 mph 14.0 mph 79% 0.00 in BKN
19:16 67.8 °F 62.8 °F 29.84 in SSW 7.0 mph 18.0 mph 84% 0.00 in BKN
19:30 67.6 °F 62.6 °F 29.83 in SSW 6.0 mph 18.0 mph 84% 0.00 in BKN
20:15 67.6 °F 62.6 °F 29.83 in South 5.0 mph 16.0 mph 84% 0.00 in BKN
20:30 67.5 °F 62.5 °F 29.81 in SSW 6.0 mph 15.0 mph 84% 0.00 in BKN
TarryTown NY Weather
Compliments of Weather Underground - 1.25 mb